Airport View

Enter AWOS ICAO identifier for current METAR.

ex. KFNL

KSDC 022235Z AUTO 00000KT 10SM OVC050 20/11 A2978 RMK AO2

2 Jun 2020 22:46

Frequency: 124.2

Phone: 315-483-6171

Other Area AWOS: KROC - KFZY - K6B9 - KPEO

TAF AMD KROC 022120Z 0221/0318 27010KT P6SM BKN050 FM030300 23006KT 4SM BR VCSH BKN050 FM030500 23005KT P6SM BKN045 FM031200 27007KT P6SM -SHRA BKN012 FM031700 28010G16KT P6SM VCSH BKN030